createdAt,value
2019-04-30T00:02:15.941Z,5.62
2019-04-30T00:04:48.317Z,5.20
2019-04-30T00:07:19.185Z,5.03
2019-04-30T00:09:54.004Z,5.45
2019-04-30T00:12:25.640Z,5.20
2019-04-30T00:14:55.766Z,7.33
2019-04-30T00:17:26.296Z,5.42
2019-04-30T00:19:59.720Z,5.20
2019-04-30T00:22:33.971Z,5.03
2019-04-30T00:25:02.481Z,5.03
2019-04-30T00:27:35.623Z,5.58
2019-04-30T00:30:09.275Z,4.60
2019-04-30T00:32:43.819Z,5.50
2019-04-30T00:35:15.585Z,5.03
2019-04-30T00:37:44.983Z,5.17
2019-04-30T00:40:16.415Z,5.40
2019-04-30T00:42:46.994Z,5.08
2019-04-30T00:45:18.199Z,4.97
2019-04-30T00:47:48.615Z,4.58
2019-04-30T00:50:19.214Z,6.05
2019-04-30T00:52:49.695Z,5.33
2019-04-30T00:55:20.193Z,5.22
2019-04-30T00:57:50.717Z,5.83
2019-04-30T01:00:28.112Z,5.92
2019-04-30T01:03:05.878Z,5.90
2019-04-30T01:05:39.684Z,7.67
2019-04-30T01:08:08.308Z,5.67
2019-04-30T01:10:38.665Z,6.65
2019-04-30T01:13:11.948Z,6.58
2019-04-30T01:15:43.906Z,6.35
2019-04-30T01:18:13.228Z,7.97
2019-04-30T01:20:43.760Z,9.18
2019-04-30T01:23:16.070Z,7.67
2019-04-30T01:25:49.914Z,8.40
2019-04-30T01:28:23.107Z,9.38
2019-04-30T01:30:53.851Z,11.40
2019-04-30T01:33:28.401Z,9.13
2019-04-30T01:35:59.535Z,8.58
2019-04-30T01:38:29.687Z,8.90
2019-04-30T01:41:00.201Z,9.33
2019-04-30T01:43:34.511Z,9.53
2019-04-30T01:46:12.222Z,9.30
2019-04-30T01:48:34.821Z,9.58
2019-04-30T01:51:05.239Z,9.58
2019-04-30T01:53:35.617Z,15.53
2019-04-30T01:56:22.607Z,9.30
2019-04-30T01:59:01.586Z,9.60
2019-04-30T02:01:33.592Z,9.60
2019-04-30T02:04:03.990Z,10.15
2019-04-30T02:06:34.543Z,10.15
2019-04-30T02:09:06.439Z,10.35
2019-04-30T02:11:38.867Z,9.35
2019-04-30T02:14:09.343Z,9.30
2019-04-30T02:16:39.764Z,9.25
2019-04-30T02:19:10.187Z,9.83
2019-04-30T02:21:42.161Z,8.63
2019-04-30T02:24:12.557Z,8.93
2019-04-30T02:26:43.033Z,9.80
2019-04-30T02:29:13.437Z,9.40
2019-04-30T02:31:46.268Z,9.83
2019-04-30T02:34:22.224Z,8.73
2019-04-30T02:36:54.448Z,10.53
2019-04-30T02:39:24.836Z,8.63
2019-04-30T02:41:55.648Z,8.55
2019-04-30T02:44:29.171Z,8.30
2019-04-30T02:47:00.934Z,9.55
2019-04-30T02:49:33.346Z,8.68
2019-04-30T02:52:05.139Z,9.23
2019-04-30T02:54:39.578Z,10.28
2019-04-30T02:57:12.216Z,10.05
2019-04-30T03:00:01.339Z,10.13
2019-04-30T03:02:32.295Z,10.35
2019-04-30T03:05:02.677Z,11.93
2019-04-30T03:07:33.087Z,11.90
2019-04-30T03:10:04.238Z,11.90
2019-04-30T03:12:34.937Z,10.48
2019-04-30T03:15:09.706Z,11.63
2019-04-30T03:17:40.748Z,11.95
2019-04-30T03:20:27.744Z,11.50
2019-04-30T03:22:44.872Z,10.80
2019-04-30T03:25:15.243Z,11.00
2019-04-30T03:27:45.845Z,10.18
2019-04-30T03:30:16.219Z,14.47
2019-04-30T03:32:52.327Z,11.30
2019-04-30T03:35:22.796Z,11.12
2019-04-30T03:37:50.940Z,9.93
2019-04-30T03:40:21.325Z,11.75
2019-04-30T03:42:51.735Z,11.40
2019-04-30T03:45:22.381Z,11.60
2019-04-30T03:47:52.773Z,11.05
2019-04-30T03:50:23.271Z,12.60
2019-04-30T03:52:53.641Z,10.75
2019-04-30T03:55:24.935Z,10.45
2019-04-30T03:57:55.608Z,12.28
2019-04-30T04:00:33.555Z,10.53
2019-04-30T04:03:04.011Z,10.65
2019-04-30T04:05:42.036Z,9.55
2019-04-30T04:08:20.325Z,10.38
2019-04-30T04:10:52.925Z,9.98
2019-04-30T04:13:23.757Z,10.98
2019-04-30T04:15:54.169Z,9.83
2019-04-30T04:18:24.539Z,9.18
2019-04-30T04:21:07.391Z,9.75
2019-04-30T04:23:29.622Z,9.60
2019-04-30T04:25:59.645Z,8.90
2019-04-30T04:28:30.201Z,8.53
2019-04-30T04:31:00.743Z,8.93
2019-04-30T04:33:32.796Z,9.08
2019-04-30T04:36:04.968Z,8.68
2019-04-30T04:38:35.364Z,8.40
2019-04-30T04:41:05.839Z,7.72
2019-04-30T04:43:36.207Z,6.85
2019-04-30T04:46:09.126Z,7.30
2019-04-30T04:48:39.450Z,8.48
2019-04-30T04:51:27.242Z,6.62
2019-04-30T04:53:42.215Z,6.60
2019-04-30T04:56:12.782Z,6.35
2019-04-30T04:58:43.295Z,5.50
2019-04-30T05:01:13.903Z,5.72
2019-04-30T05:03:45.771Z,5.35
2019-04-30T05:06:16.145Z,5.35
2019-04-30T05:08:49.311Z,5.12
2019-04-30T05:11:19.905Z,6.12
2019-04-30T05:13:50.561Z,4.67
2019-04-30T05:16:22.395Z,5.65
2019-04-30T05:18:52.931Z,5.03
2019-04-30T05:21:23.328Z,6.22
2019-04-30T05:23:53.743Z,4.92
2019-04-30T05:26:24.229Z,8.40
2019-04-30T05:28:54.780Z,4.00
2019-04-30T05:31:28.606Z,4.22
2019-04-30T05:33:58.965Z,3.83
2019-04-30T05:36:29.388Z,5.22
2019-04-30T05:38:59.831Z,3.50
2019-04-30T05:41:30.761Z,4.33
2019-04-30T05:44:01.141Z,3.35
2019-04-30T05:46:31.608Z,3.17
2019-04-30T05:49:02.021Z,3.85
2019-04-30T05:51:32.501Z,4.17
2019-04-30T05:54:02.908Z,3.55
2019-04-30T05:56:33.323Z,4.20
2019-04-30T05:59:03.849Z,3.08
2019-04-30T06:01:34.268Z,3.75
2019-04-30T06:04:04.700Z,3.12
2019-04-30T06:06:35.442Z,4.55
2019-04-30T06:09:14.844Z,2.90
2019-04-30T06:11:51.768Z,2.85
2019-04-30T06:14:29.874Z,3.22
2019-04-30T06:17:10.675Z,2.80
2019-04-30T06:19:41.157Z,3.02
2019-04-30T06:22:11.518Z,2.92
2019-04-30T06:24:42.004Z,2.55
2019-04-30T06:27:13.834Z,2.60
2019-04-30T06:29:45.742Z,3.67
2019-04-30T06:32:16.235Z,2.83
2019-04-30T06:34:49.824Z,2.27
2019-04-30T06:37:20.677Z,2.33
2019-04-30T06:39:51.360Z,3.90
2019-04-30T06:42:21.736Z,1.98
2019-04-30T06:44:52.330Z,3.42
2019-04-30T06:47:32.695Z,2.05
2019-04-30T06:49:55.615Z,2.25
2019-04-30T06:52:26.090Z,2.85
2019-04-30T06:54:56.479Z,1.52
2019-04-30T06:57:29.412Z,1.57
2019-04-30T07:00:00.098Z,1.85
2019-04-30T07:02:30.889Z,1.57
2019-04-30T07:05:01.606Z,3.35
2019-04-30T07:07:38.710Z,1.52
2019-04-30T07:10:10.189Z,2.35
2019-04-30T07:12:45.174Z,1.60
2019-04-30T07:15:16.522Z,7.97
2019-04-30T07:17:49.002Z,2.00
2019-04-30T07:20:19.248Z,3.92
2019-04-30T07:22:59.094Z,2.40
2019-04-30T07:25:23.617Z,7.08
2019-04-30T07:27:54.001Z,1.72
2019-04-30T07:30:25.860Z,1.92
2019-04-30T07:32:56.240Z,2.37
2019-04-30T07:35:26.625Z,2.25
2019-04-30T07:38:00.581Z,1.30
2019-04-30T07:40:29.354Z,1.42
2019-04-30T07:43:00.036Z,1.60
2019-04-30T07:45:32.326Z,3.15
2019-04-30T07:48:03.161Z,2.52
2019-04-30T07:50:35.752Z,3.17
2019-04-30T07:53:08.067Z,2.00
2019-04-30T07:55:39.407Z,2.50
2019-04-30T07:58:10.038Z,2.08
2019-04-30T08:00:40.544Z,1.72
2019-04-30T08:03:15.875Z,1.40
2019-04-30T08:05:50.044Z,1.40
2019-04-30T08:08:25.031Z,3.15
2019-04-30T08:10:54.112Z,1.30
2019-04-30T08:13:24.987Z,1.20
2019-04-30T08:15:55.702Z,1.37
2019-04-30T08:18:26.148Z,1.85
2019-04-30T08:20:58.718Z,1.50
2019-04-30T08:23:34.741Z,5.22
2019-04-30T08:26:02.289Z,2.70
2019-04-30T08:28:32.675Z,3.12
2019-04-30T08:31:04.752Z,1.70
2019-04-30T08:33:35.135Z,2.08
2019-04-30T08:36:05.563Z,2.62
2019-04-30T08:38:36.776Z,1.60
2019-04-30T08:41:08.861Z,2.00
2019-04-30T08:43:39.504Z,2.62
2019-04-30T08:46:10.079Z,1.57
2019-04-30T08:48:50.267Z,2.35
2019-04-30T08:51:13.933Z,1.32
2019-04-30T08:53:44.696Z,2.08
2019-04-30T08:56:15.180Z,2.62
2019-04-30T08:58:45.591Z,1.40
2019-04-30T09:01:16.644Z,1.52
2019-04-30T09:03:50.946Z,2.58
2019-04-30T09:06:21.488Z,3.45
2019-04-30T09:08:52.379Z,2.20
2019-04-30T09:11:29.492Z,4.90
2019-04-30T09:13:58.509Z,1.17
2019-04-30T09:16:29.704Z,1.65
2019-04-30T09:19:01.570Z,1.42
2019-04-30T09:21:32.038Z,1.50
2019-04-30T09:24:04.139Z,2.85
2019-04-30T09:26:36.026Z,2.42
2019-04-30T09:29:06.506Z,2.98
2019-04-30T09:31:40.744Z,1.30
2019-04-30T09:34:17.496Z,1.30
2019-04-30T09:36:42.657Z,1.62
2019-04-30T09:39:13.177Z,1.92
2019-04-30T09:41:43.561Z,2.05
2019-04-30T09:44:15.445Z,1.32
2019-04-30T09:46:48.891Z,1.45
2019-04-30T09:49:20.467Z,1.52
2019-04-30T09:51:51.161Z,1.22
2019-04-30T09:54:22.967Z,1.20
2019-04-30T09:56:53.521Z,1.72
2019-04-30T09:59:25.395Z,1.50
2019-04-30T10:01:55.778Z,4.47
2019-04-30T10:04:26.696Z,1.65
2019-04-30T10:06:59.416Z,3.75
2019-04-30T10:09:29.933Z,3.40
2019-04-30T10:12:01.881Z,1.57
2019-04-30T10:14:32.446Z,2.75
2019-04-30T10:17:04.894Z,1.40
2019-04-30T10:19:35.269Z,1.52
2019-04-30T10:22:08.965Z,4.28
2019-04-30T10:24:39.522Z,1.45
2019-04-30T10:27:12.942Z,2.10
2019-04-30T10:29:42.413Z,1.95
2019-04-30T10:32:12.918Z,1.52
2019-04-30T10:34:44.205Z,1.47
2019-04-30T10:37:14.750Z,1.17
2019-04-30T10:39:45.138Z,1.75
2019-04-30T10:42:17.039Z,1.57
2019-04-30T10:44:47.664Z,1.52
2019-04-30T10:47:19.690Z,2.10
2019-04-30T10:49:50.091Z,3.00
2019-04-30T10:52:20.512Z,2.60
2019-04-30T10:54:50.896Z,2.95
2019-04-30T10:57:21.344Z,1.30
2019-04-30T10:59:51.726Z,1.40
2019-04-30T11:02:22.125Z,1.40
2019-04-30T11:04:52.615Z,2.37
2019-04-30T11:07:23.110Z,1.22
2019-04-30T11:09:55.003Z,1.67
2019-04-30T11:12:25.373Z,1.30
2019-04-30T11:14:55.800Z,2.15
2019-04-30T11:17:26.662Z,2.20
2019-04-30T11:19:59.246Z,2.08
2019-04-30T11:22:29.994Z,1.37
2019-04-30T11:25:02.791Z,1.57
2019-04-30T11:27:33.437Z,2.50
2019-04-30T11:30:20.340Z,1.60
2019-04-30T11:32:41.533Z,1.35
2019-04-30T11:35:13.775Z,4.65
2019-04-30T11:37:44.241Z,2.37
2019-04-30T11:40:15.435Z,1.80
2019-04-30T11:42:45.843Z,1.60
2019-04-30T11:45:19.503Z,3.25
2019-04-30T11:47:53.544Z,3.17
2019-04-30T11:50:24.796Z,4.45
2019-04-30T11:53:09.639Z,3.45
2019-04-30T11:55:29.159Z,2.58
2019-04-30T11:58:01.221Z,2.42
2019-04-30T12:00:33.260Z,2.30
2019-04-30T12:03:03.673Z,2.47
2019-04-30T12:05:34.155Z,2.80
2019-04-30T12:08:07.069Z,3.37
2019-04-30T12:10:48.302Z,4.03
2019-04-30T12:13:26.205Z,3.27
2019-04-30T12:15:58.823Z,3.12
2019-04-30T12:18:30.759Z,3.12
2019-04-30T12:21:01.289Z,3.20
2019-04-30T12:23:31.753Z,3.37
2019-04-30T12:26:02.950Z,2.95
2019-04-30T12:28:33.770Z,4.62
2019-04-30T12:31:05.853Z,3.72
2019-04-30T12:33:36.609Z,3.80
2019-04-30T12:36:09.006Z,5.58
2019-04-30T12:38:39.530Z,3.52
2019-04-30T12:41:09.946Z,3.25
2019-04-30T12:43:41.854Z,11.57
2019-04-30T12:46:12.248Z,5.22
2019-04-30T12:48:50.215Z,3.65
2019-04-30T12:51:28.359Z,5.35
2019-04-30T12:54:09.566Z,3.52
2019-04-30T12:56:45.499Z,4.50
2019-04-30T12:59:16.015Z,3.10
2019-04-30T13:01:49.544Z,7.00
2019-04-30T13:04:20.168Z,2.98
2019-04-30T13:06:51.289Z,2.75
2019-04-30T13:09:24.089Z,3.22
2019-04-30T13:11:55.104Z,10.38
2019-04-30T13:14:26.281Z,13.30
2019-04-30T13:16:58.924Z,3.83
2019-04-30T13:19:29.473Z,3.40
2019-04-30T13:22:00.062Z,3.77
2019-04-30T13:24:31.425Z,3.75
2019-04-30T13:27:02.145Z,15.48
2019-04-30T13:29:35.601Z,5.80
2019-04-30T13:32:05.969Z,5.08
2019-04-30T13:34:50.226Z,5.40
2019-04-30T13:37:20.652Z,4.85
2019-04-30T13:40:10.831Z,6.58
2019-04-30T13:42:42.839Z,9.10
2019-04-30T13:45:13.541Z,8.00
2019-04-30T13:47:43.912Z,7.42
2019-04-30T13:50:14.688Z,10.50
2019-04-30T13:52:48.845Z,9.43
2019-04-30T13:55:19.475Z,10.78
2019-04-30T13:57:49.839Z,11.43
2019-04-30T14:00:22.412Z,13.38
2019-04-30T14:03:00.870Z,15.00
2019-04-30T14:05:31.465Z,19.00
2019-04-30T14:08:05.922Z,18.57
2019-04-30T14:10:39.302Z,17.10
2019-04-30T14:13:11.031Z,19.67
2019-04-30T14:15:42.063Z,17.80
2019-04-30T14:18:14.020Z,18.45
2019-04-30T14:20:44.437Z,21.77
2019-04-30T14:23:14.852Z,18.55
2019-04-30T14:25:55.949Z,17.35
2019-04-30T14:28:19.092Z,18.40
2019-04-30T14:30:49.660Z,23.35
2019-04-30T14:33:26.005Z,22.93
2019-04-30T14:35:52.198Z,21.25
2019-04-30T14:38:24.130Z,21.80
2019-04-30T14:40:55.206Z,22.22
2019-04-30T14:43:42.320Z,23.18
2019-04-30T14:46:16.740Z,21.15
2019-04-30T14:48:55.828Z,21.00
2019-04-30T14:51:26.653Z,22.58
2019-04-30T14:54:13.776Z,27.62
2019-04-30T14:56:45.731Z,23.07
2019-04-30T14:59:18.765Z,25.00
2019-04-30T15:01:51.652Z,26.65
2019-04-30T15:04:22.253Z,25.02
2019-04-30T15:06:52.636Z,25.57
2019-04-30T15:09:23.572Z,23.73
2019-04-30T15:11:53.979Z,27.22
2019-04-30T15:14:24.408Z,26.90
2019-04-30T15:16:54.905Z,27.52
2019-04-30T15:19:26.753Z,28.25
2019-04-30T15:21:59.035Z,28.38
2019-04-30T15:24:30.880Z,29.85
2019-04-30T15:27:01.338Z,31.93
2019-04-30T15:29:31.761Z,31.87
2019-04-30T15:32:02.193Z,27.93
2019-04-30T15:34:32.600Z,25.45
2019-04-30T15:37:03.023Z,30.08
2019-04-30T15:39:34.982Z,29.65
2019-04-30T15:42:05.676Z,26.17
2019-04-30T15:44:45.224Z,31.90
2019-04-30T15:47:10.046Z,30.92
2019-04-30T15:49:40.480Z,32.58
2019-04-30T15:52:11.137Z,33.67
2019-04-30T15:54:41.686Z,29.75
2019-04-30T15:57:12.063Z,32.73
2019-04-30T15:59:42.486Z,31.45
2019-04-30T16:02:14.612Z,34.45
2019-04-30T16:05:05.052Z,31.55
2019-04-30T16:07:40.546Z,34.30
2019-04-30T16:10:12.024Z,32.40
2019-04-30T16:12:45.468Z,34.35
2019-04-30T16:15:18.475Z,34.88
2019-04-30T16:17:53.528Z,36.13
2019-04-30T16:20:24.856Z,39.88
2019-04-30T16:22:55.312Z,35.70
2019-04-30T16:25:25.734Z,35.03
2019-04-30T16:27:56.111Z,38.42
2019-04-30T16:30:28.902Z,35.43
2019-04-30T16:32:59.693Z,37.17
2019-04-30T16:35:30.490Z,54.30
2019-04-30T16:38:02.140Z,47.03
2019-04-30T16:40:32.549Z,43.25
2019-04-30T16:43:02.961Z,38.78
2019-04-30T16:45:34.948Z,45.52
2019-04-30T16:48:05.612Z,40.38
2019-04-30T16:50:36.105Z,49.00
2019-04-30T16:53:06.593Z,47.90
2019-04-30T16:55:37.432Z,47.38
2019-04-30T16:58:08.993Z,46.05
2019-04-30T17:00:41.211Z,45.35
2019-04-30T17:03:16.733Z,42.78
2019-04-30T17:05:49.928Z,50.63
2019-04-30T17:08:29.884Z,58.70
2019-04-30T17:11:04.720Z,58.08
2019-04-30T17:13:42.994Z,58.48
2019-04-30T17:16:20.984Z,50.05
2019-04-30T17:18:51.565Z,55.90
2019-04-30T17:21:22.541Z,54.33
2019-04-30T17:23:52.963Z,53.87
2019-04-30T17:26:23.422Z,52.43
2019-04-30T17:28:56.195Z,53.65
2019-04-30T17:31:26.669Z,54.77
2019-04-30T17:33:58.660Z,31.68
2019-04-30T17:36:30.781Z,36.17
2019-04-30T17:39:03.970Z,26.60
2019-04-30T17:41:36.985Z,21.90
2019-04-30T17:44:08.895Z,19.42
2019-04-30T17:46:39.465Z,19.35
2019-04-30T17:49:10.157Z,23.35
2019-04-30T17:51:40.761Z,21.42
2019-04-30T17:54:12.880Z,20.00
2019-04-30T17:56:44.644Z,17.65
2019-04-30T17:59:15.340Z,19.20
2019-04-30T18:01:49.489Z,17.57
2019-04-30T18:04:22.027Z,15.90
2019-04-30T18:06:51.587Z,19.15
2019-04-30T18:09:22.476Z,19.02
2019-04-30T18:11:53.009Z,17.80
2019-04-30T18:14:25.049Z,20.70
2019-04-30T18:16:55.414Z,16.10
2019-04-30T18:19:28.685Z,15.08
2019-04-30T18:22:15.881Z,14.73
2019-04-30T18:24:53.685Z,11.88
2019-04-30T18:27:25.642Z,11.12
2019-04-30T18:29:56.045Z,15.68
2019-04-30T18:32:29.612Z,18.77
2019-04-30T18:35:00.395Z,20.30
2019-04-30T18:37:31.132Z,22.37
2019-04-30T18:40:01.591Z,16.80
2019-04-30T18:42:32.993Z,19.80
2019-04-30T18:45:03.417Z,14.68
2019-04-30T18:47:33.817Z,15.68
2019-04-30T18:50:06.937Z,14.73
2019-04-30T18:52:37.770Z,12.60
2019-04-30T18:55:09.333Z,12.95
2019-04-30T18:57:41.333Z,18.23
2019-04-30T19:00:13.961Z,18.23
2019-04-30T19:02:44.357Z,18.00
2019-04-30T19:05:19.065Z,18.82
2019-04-30T19:07:51.053Z,18.10
2019-04-30T19:10:39.291Z,18.12
2019-04-30T19:13:11.397Z,14.87
2019-04-30T19:16:17.992Z,17.42
2019-04-30T19:18:31.946Z,18.02
2019-04-30T19:21:03.902Z,20.00
2019-04-30T19:23:34.439Z,18.35
2019-04-30T19:26:06.500Z,14.70
2019-04-30T19:28:38.664Z,15.30
2019-04-30T19:31:11.616Z,15.38
2019-04-30T19:33:41.273Z,21.50
2019-04-30T19:36:11.823Z,19.60
2019-04-30T19:38:42.238Z,19.37
2019-04-30T19:41:13.014Z,20.57
2019-04-30T19:43:43.557Z,25.48
2019-04-30T19:46:13.946Z,17.27
2019-04-30T19:48:45.214Z,17.90
2019-04-30T19:51:15.911Z,15.40
2019-04-30T19:53:48.839Z,16.32
2019-04-30T19:56:20.609Z,16.70
2019-04-30T19:59:01.732Z,17.02
2019-04-30T20:01:23.370Z,14.68
2019-04-30T20:03:54.228Z,15.20
2019-04-30T20:06:24.704Z,13.53
2019-04-30T20:08:55.129Z,14.90
2019-04-30T20:11:25.549Z,13.70
2019-04-30T20:13:56.079Z,11.95
2019-04-30T20:16:26.688Z,12.93
2019-04-30T20:18:59.106Z,16.80
2019-04-30T20:21:45.101Z,13.90
2019-04-30T20:24:02.519Z,16.80
2019-04-30T20:26:33.427Z,14.07
2019-04-30T20:29:05.391Z,14.38
2019-04-30T20:31:35.830Z,16.35
2019-04-30T20:34:09.214Z,15.60
2019-04-30T20:36:39.774Z,17.30
2019-04-30T20:39:17.776Z,17.73
2019-04-30T20:41:49.395Z,18.25
2019-04-30T20:44:19.778Z,15.18
2019-04-30T20:46:50.353Z,16.10
2019-04-30T20:49:20.850Z,13.83
2019-04-30T20:51:55.589Z,14.15
2019-04-30T20:54:23.407Z,13.22
2019-04-30T20:56:53.804Z,17.10
2019-04-30T20:59:24.174Z,17.00
2019-04-30T21:01:56.207Z,13.98
2019-04-30T21:04:26.678Z,15.30
2019-04-30T21:06:59.502Z,17.50
2019-04-30T21:09:30.011Z,13.78
2019-04-30T21:12:00.469Z,15.40
2019-04-30T21:14:30.866Z,17.02
2019-04-30T21:17:01.285Z,15.10
2019-04-30T21:19:31.676Z,19.02
2019-04-30T21:22:02.209Z,18.32
2019-04-30T21:24:32.676Z,17.45
2019-04-30T21:27:03.163Z,16.45
2019-04-30T21:29:33.638Z,18.75
2019-04-30T21:32:09.952Z,16.73
2019-04-30T21:34:47.753Z,15.40
2019-04-30T21:37:18.254Z,37.80
2019-04-30T21:39:50.169Z,17.70
2019-04-30T21:42:20.766Z,17.12
2019-04-30T21:44:51.165Z,16.93
2019-04-30T21:47:21.571Z,18.23
2019-04-30T21:49:52.199Z,22.15
2019-04-30T21:52:22.587Z,18.85
2019-04-30T21:54:53.070Z,19.82
2019-04-30T21:57:23.444Z,16.70
2019-04-30T21:59:53.866Z,16.48
2019-04-30T22:02:24.253Z,18.45
2019-04-30T22:04:54.846Z,17.62
2019-04-30T22:07:26.892Z,18.05
2019-04-30T22:09:57.309Z,19.80
2019-04-30T22:12:31.192Z,20.12
2019-04-30T22:15:01.365Z,18.90
2019-04-30T22:17:31.743Z,20.32
2019-04-30T22:20:03.588Z,20.85
2019-04-30T22:22:34.230Z,18.67
2019-04-30T22:25:06.912Z,17.90
2019-04-30T22:27:37.301Z,23.18
2019-04-30T22:30:08.203Z,19.60
2019-04-30T22:32:38.610Z,20.68
2019-04-30T22:35:28.829Z,25.12
2019-04-30T22:38:00.874Z,29.12
2019-04-30T22:40:31.664Z,23.85
2019-04-30T22:43:05.058Z,21.05
2019-04-30T22:45:40.491Z,20.72
2019-04-30T22:48:11.026Z,17.90
2019-04-30T22:50:44.231Z,22.42
2019-04-30T22:53:16.161Z,17.73
2019-04-30T22:55:46.634Z,23.60
2019-04-30T22:58:18.600Z,20.17
2019-04-30T23:00:49.417Z,19.00
2019-04-30T23:03:27.483Z,25.52
2019-04-30T23:05:58.006Z,21.60
2019-04-30T23:08:28.576Z,20.12
2019-04-30T23:10:59.052Z,23.15
2019-04-30T23:13:29.458Z,22.98
2019-04-30T23:15:59.885Z,19.90
2019-04-30T23:18:32.236Z,18.90
2019-04-30T23:21:02.815Z,17.67
2019-04-30T23:23:33.303Z,21.62
2019-04-30T23:26:03.697Z,21.65
2019-04-30T23:28:35.589Z,21.55
2019-04-30T23:31:05.971Z,20.85
2019-04-30T23:33:36.434Z,20.62
2019-04-30T23:36:06.886Z,20.17
2019-04-30T23:38:37.384Z,19.73
2019-04-30T23:41:07.766Z,18.45
2019-04-30T23:43:38.201Z,21.87
2019-04-30T23:46:08.602Z,21.33
2019-04-30T23:48:39.188Z,21.77
2019-04-30T23:51:11.192Z,23.52
2019-04-30T23:53:41.619Z,22.82
2019-04-30T23:56:11.565Z,23.77
2019-04-30T23:58:42.026Z,24.90
